Time;durP1;ratioP1;P1;durP2;ratioP2;P2;SDS_P1;SDS_P2;PMS_P1;PMS_P2;Temp;Humidity;BMP_temperature;BMP_pressure;BME280_temperature;BME280_humidity;BME280_pressure;Samples;Min_cycle;Max_cycle;Signal;HPM_P1;HPM_P2
2023/08/29 00:01:28;;;;;;;3.10;2.90;;;19.80;99.90;;;;;;4841702;29;20509;-79
2023/08/29 00:03:56;;;;;;;6.35;3.30;;;19.80;99.90;;;;;;4851593;29;20037;-79
2023/08/29 00:06:24;;;;;;;2.90;2.60;;;19.90;99.90;;;;;;4859815;29;20515;-79
2023/08/29 00:08:50;;;;;;;4.28;2.80;;;19.90;99.90;;;;;;4870479;29;20029;-79
2023/08/29 00:11:16;;;;;;;3.75;3.38;;;20.00;99.90;;;;;;4859491;29;20046;-79
2023/08/29 00:13:43;;;;;;;4.00;3.63;;;20.00;99.90;;;;;;4853142;29;20029;-79
2023/08/29 00:16:12;;;;;;;5.80;3.13;;;20.00;99.90;;;;;;4868159;29;20029;-79
2023/08/29 00:18:38;;;;;;;6.60;4.03;;;20.00;99.90;;;;;;4853527;29;20527;-79
2023/08/29 00:21:04;;;;;;;3.40;3.20;;;20.00;99.90;;;;;;4859332;29;20045;-79
2023/08/29 00:23:30;;;;;;;2.95;2.72;;;19.90;99.90;;;;;;4844053;29;20409;-79
2023/08/29 00:25:55;;;;;;;2.78;2.58;;;19.90;99.90;;;;;;4853454;29;20029;-79
2023/08/29 00:28:21;;;;;;;2.22;1.85;;;20.00;99.90;;;;;;4864990;29;20090;-79
2023/08/29 00:30:47;;;;;;;3.45;2.05;;;20.00;99.90;;;;;;4869754;29;20247;-79
2023/08/29 00:33:12;;;;;;;2.95;1.88;;;20.00;99.90;;;;;;4864537;29;20048;-79
2023/08/29 00:35:39;;;;;;;1.90;1.40;;;20.00;99.90;;;;;;4850542;29;20025;-79
2023/08/29 00:38:04;;;;;;;3.03;1.38;;;20.00;99.90;;;;;;4853097;29;20030;-79
2023/08/29 00:40:31;;;;;;;1.58;1.17;;;19.90;99.90;;;;;;4844123;29;20078;-79
2023/08/29 00:43:01;;;;;;;5.68;1.65;;;19.90;99.90;;;;;;4848727;29;20085;-79
2023/08/29 00:45:35;;;;;;;1.45;1.30;;;19.80;99.90;;;;;;4868464;29;20025;-79
2023/08/29 00:48:01;;;;;;;2.00;1.25;;;19.90;99.90;;;;;;4861483;29;20033;-78
2023/08/29 00:50:28;;;;;;;4.00;1.30;;;19.80;99.90;;;;;;4869069;29;20029;-78
2023/08/29 00:52:58;;;;;;;1.27;1.17;;;19.90;99.90;;;;;;4865507;29;20116;-78
2023/08/29 00:55:25;;;;;;;1.75;0.88;;;19.90;99.90;;;;;;4864946;29;20060;-78
2023/08/29 00:57:56;;;;;;;2.75;1.20;;;19.80;99.90;;;;;;4866558;29;20029;-78
2023/08/29 01:00:25;;;;;;;2.72;1.08;;;19.80;99.90;;;;;;4866424;29;20033;-78
2023/08/29 01:02:51;;;;;;;1.00;0.82;;;19.70;99.90;;;;;;4844103;29;20034;-77
2023/08/29 01:05:17;;;;;;;1.55;1.00;;;19.80;99.90;;;;;;4849731;29;20054;-78
2023/08/29 01:07:47;;;;;;;2.45;0.88;;;19.80;99.90;;;;;;4869615;29;20029;-78
2023/08/29 01:10:13;;;;;;;1.55;0.80;;;19.80;99.90;;;;;;4855500;29;20542;-79
2023/08/29 01:12:47;;;;;;;1.63;0.95;;;19.70;99.90;;;;;;4850296;29;20146;-78
2023/08/29 01:15:21;;;;;;;2.35;1.10;;;19.60;98.40;;;;;;4870922;29;20045;-78
2023/08/29 01:18:05;;;;;;;1.65;0.70;;;19.60;99.90;;;;;;4850185;29;20029;-77
2023/08/29 01:20:33;;;;;;;2.33;1.00;;;19.50;99.90;;;;;;4848191;29;20085;-78
2023/08/29 01:23:31;;;;;;;1.27;1.08;;;19.50;99.90;;;;;;4866082;29;20033;-78
2023/08/29 01:26:06;;;;;;;3.78;1.00;;;19.50;99.90;;;;;;4842043;29;20034;-78
2023/08/29 01:28:32;;;;;;;3.15;1.00;;;19.30;99.90;;;;;;4864239;29;20097;-78
2023/08/29 01:31:03;;;;;;;0.70;0.70;;;19.10;94.10;;;;;;4852398;29;20076;-78
2023/08/29 01:33:29;;;;;;;1.40;0.90;;;19.10;95.70;;;;;;4835721;29;20068;-78
2023/08/29 01:35:55;;;;;;;0.90;0.90;;;18.90;98.40;;;;;;4841867;29;20029;-78
2023/08/29 01:38:20;;;;;;;2.30;1.05;;;19.00;95.10;;;;;;4862057;29;20032;-78
2023/08/29 01:40:46;;;;;;;1.10;0.75;;;18.90;97.90;;;;;;4845316;29;20037;-78
2023/08/29 01:43:12;;;;;;;0.55;0.55;;;18.90;94.00;;;;;;4845077;29;20378;-78
2023/08/29 01:45:38;;;;;;;2.78;0.70;;;18.90;99.10;;;;;;4852498;29;20035;-78
2023/08/29 01:48:04;;;;;;;1.63;0.82;;;18.90;89.00;;;;;;4837543;29;20385;-79
2023/08/29 01:50:32;;;;;;;4.43;0.80;;;18.90;93.80;;;;;;4868262;29;20124;-79
2023/08/29 01:53:02;;;;;;;1.00;0.90;;;18.80;91.90;;;;;;4841933;29;20033;-79
2023/08/29 01:55:29;;;;;;;1.13;0.70;;;18.80;77.70;;;;;;4869165;29;20591;-78
2023/08/29 01:57:57;;;;;;;1.13;0.85;;;18.80;76.30;;;;;;4843755;29;20486;-78
2023/08/29 02:00:23;;;;;;;2.92;0.80;;;18.80;89.30;;;;;;4865628;29;20036;-78
2023/08/29 02:02:49;;;;;;;0.80;0.80;;;18.80;85.20;;;;;;4862013;29;20045;-78
2023/08/29 02:05:15;;;;;;;1.52;0.80;;;18.80;76.60;;;;;;4857002;29;20032;-79
2023/08/29 02:07:40;;;;;;;1.13;0.85;;;18.80;58.30;;;;;;4839439;29;20033;-79
2023/08/29 02:10:07;;;;;;;2.08;0.82;;;18.80;66.00;;;;;;4862181;29;20025;-79
2023/08/29 02:12:33;;;;;;;0.85;0.80;;;18.80;59.10;;;;;;4850293;29;20062;-78
2023/08/29 02:14:58;;;;;;;1.80;0.77;;;18.80;57.40;;;;;;4843842;29;20029;-79
2023/08/29 02:17:24;;;;;;;1.08;0.90;;;18.80;62.90;;;;;;4850556;29;20394;-79
2023/08/29 02:19:50;;;;;;;1.88;0.75;;;18.80;71.10;;;;;;4847329;29;20026;-79
2023/08/29 02:22:16;;;;;;;1.45;0.68;;;18.70;70.90;;;;;;4849382;29;20089;-79
2023/08/29 02:24:42;;;;;;;1.50;0.85;;;18.70;59.80;;;;;;4849463;29;20046;-79
2023/08/29 02:27:08;;;;;;;1.98;0.95;;;18.70;63.00;;;;;;4848196;29;20043;-78
2023/08/29 02:29:34;;;;;;;1.10;0.70;;;18.70;70.30;;;;;;4865628;29;20405;-78
2023/08/29 02:32:00;;;;;;;1.23;0.82;;;18.70;84.10;;;;;;4859773;29;20048;-77
2023/08/29 02:34:25;;;;;;;1.13;0.85;;;18.80;80.80;;;;;;4839516;29;20037;-78
2023/08/29 02:36:52;;;;;;;1.92;0.85;;;18.80;78.60;;;;;;4861206;29;20114;-78
2023/08/29 02:39:18;;;;;;;0.80;0.80;;;18.80;65.50;;;;;;4851801;29;20030;-78
2023/08/29 02:41:44;;;;;;;1.08;0.85;;;18.80;66.10;;;;;;4839090;29;20034;-79
2023/08/29 02:44:10;;;;;;;0.73;0.73;;;18.90;70.80;;;;;;4867028;29;20033;-78
2023/08/29 02:46:35;;;;;;;1.63;1.08;;;18.90;51.40;;;;;;4845996;29;20060;-78
2023/08/29 02:49:01;;;;;;;0.75;0.73;;;18.90;46.90;;;;;;4842489;29;20038;-79
2023/08/29 02:51:27;;;;;;;0.73;0.70;;;18.80;9.80;;;;;;4857236;29;20082;-78
2023/08/29 02:53:53;;;;;;;1.00;0.75;;;18.90;21.80;;;;;;4843839;29;20521;-78
2023/08/29 02:56:19;;;;;;;1.08;0.70;;;18.80;1.00;;;;;;4864234;29;20063;-79
2023/08/29 02:58:45;;;;;;;0.50;0.50;;;18.80;1.00;;;;;;4865124;29;20032;-79
2023/08/29 03:01:12;;;;;;;0.45;0.43;;;18.80;1.00;;;;;;4861761;29;20021;-79
2023/08/29 03:03:38;;;;;;;0.57;0.40;;;18.80;1.00;;;;;;4858728;29;20390;-78
2023/08/29 03:06:06;;;;;;;2.17;0.93;;;18.80;1.00;;;;;;4866871;29;20032;-80
2023/08/29 03:08:32;;;;;;;1.08;0.80;;;18.70;1.00;;;;;;4868005;29;20030;-79
2023/08/29 03:11:03;;;;;;;1.65;0.60;;;18.70;1.00;;;;;;4854609;29;20193;-78
2023/08/29 03:13:32;;;;;;;1.02;0.45;;;18.70;2.80;;;;;;4847533;29;20029;-78
2023/08/29 03:16:01;;;;;;;1.05;0.50;;;18.60;16.60;;;;;;4861456;29;20025;-78
2023/08/29 03:18:30;;;;;;;3.15;0.70;;;18.50;17.30;;;;;;4845473;29;20025;-77
2023/08/29 03:20:59;;;;;;;0.80;0.57;;;18.50;40.00;;;;;;4861962;29;20450;-78
2023/08/29 03:23:25;;;;;;;1.10;0.68;;;18.40;39.00;;;;;;4861894;29;20465;-78
2023/08/29 03:25:50;;;;;;;0.65;0.65;;;18.40;59.20;;;;;;4872373;29;20112;-78
2023/08/29 03:28:16;;;;;;;1.05;0.60;;;18.40;65.10;;;;;;4862225;29;20070;-78
2023/08/29 03:30:42;;;;;;;1.08;0.40;;;18.40;91.00;;;;;;4866850;29;20120;-80
2023/08/29 03:33:17;;;;;;;0.50;0.50;;;18.40;80.80;;;;;;4847817;29;20498;-79
2023/08/29 03:35:43;;;;;;;1.38;0.55;;;18.40;81.70;;;;;;4870469;29;20037;-78
2023/08/29 03:38:09;;;;;;;1.98;0.50;;;18.40;87.20;;;;;;4844696;29;20102;-79
2023/08/29 03:40:35;;;;;;;0.80;0.50;;;18.40;90.20;;;;;;4844982;29;20594;-79
2023/08/29 03:43:01;;;;;;;2.05;0.50;;;18.30;76.90;;;;;;4860375;29;20026;-80
2023/08/29 03:45:27;;;;;;;3.13;0.88;;;18.30;76.80;;;;;;4867321;29;20042;-79
2023/08/29 03:47:52;;;;;;;0.40;0.40;;;18.30;73.10;;;;;;4853838;29;20544;-79
2023/08/29 03:50:19;;;;;;;1.45;0.70;;;18.20;72.90;;;;;;4866250;29;20426;-80
2023/08/29 03:52:45;;;;;;;4.38;0.80;;;18.20;71.60;;;;;;4860733;29;20401;-80
2023/08/29 03:55:11;;;;;;;0.55;0.55;;;18.30;84.80;;;;;;4868260;29;20038;-80
2023/08/29 03:57:36;;;;;;;1.98;0.68;;;18.20;68.30;;;;;;4845096;29;20451;-80
2023/08/29 04:00:10;;;;;;;1.17;0.40;;;18.20;51.10;;;;;;4855751;29;20037;-79
2023/08/29 04:02:35;;;;;;;0.63;0.30;;;18.20;47.80;;;;;;4844929;29;20049;-80
2023/08/29 04:05:17;;;;;;;2.00;0.43;;;18.20;38.00;;;;;;4869803;29;20037;-79
2023/08/29 04:07:44;;;;;;;0.43;0.30;;;18.20;32.80;;;;;;4865232;29;20029;-80
2023/08/29 04:10:11;;;;;;;0.57;0.50;;;18.20;24.30;;;;;;4849204;29;20041;-79
2023/08/29 04:12:37;;;;;;;0.52;0.50;;;18.30;28.90;;;;;;4838281;29;20057;-80
2023/08/29 04:15:04;;;;;;;1.85;0.50;;;18.30;22.10;;;;;;4854580;29;20040;-80
2023/08/29 04:17:29;;;;;;;0.40;0.40;;;18.30;9.30;;;;;;4852423;29;20029;-80
2023/08/29 04:19:55;;;;;;;0.30;0.30;;;18.30;17.70;;;;;;4867480;29;20040;-80
2023/08/29 04:22:21;;;;;;;1.65;0.40;;;18.20;2.70;;;;;;4865589;29;20030;-80
2023/08/29 04:24:48;;;;;;;0.90;0.40;;;18.30;1.00;;;;;;4867896;29;20477;-81
2023/08/29 04:27:14;;;;;;;0.20;0.20;;;18.30;1.00;;;;;;4865349;29;20508;-80
2023/08/29 04:29:40;;;;;;;0.73;0.32;;;18.40;1.00;;;;;;4867715;29;20120;-80
2023/08/29 04:32:06;;;;;;;0.20;0.20;;;18.40;1.00;;;;;;4860958;29;20112;-81
2023/08/29 04:34:31;;;;;;;0.82;0.50;;;18.40;1.00;;;;;;4869427;29;20064;-80
2023/08/29 04:36:57;;;;;;;2.50;0.65;;;18.30;1.00;;;;;;4845006;29;20446;-79
2023/08/29 04:39:23;;;;;;;2.47;1.30;;;18.20;38.80;;;;;;4870325;29;20021;-79
2023/08/29 04:41:50;;;;;;;0.77;0.60;;;18.10;80.00;;;;;;4864750;29;20026;-80
2023/08/29 04:44:16;;;;;;;1.00;0.40;;;18.00;73.50;;;;;;4847558;29;20095;-79
2023/08/29 04:46:41;;;;;;;0.88;0.68;;;18.00;58.10;;;;;;4865212;29;20449;-81
2023/08/29 04:49:07;;;;;;;1.58;0.47;;;18.00;87.40;;;;;;4849967;29;20026;-82
2023/08/29 04:51:34;;;;;;;0.77;0.38;;;17.80;94.80;;;;;;4848730;29;20402;-82
2023/08/29 04:54:00;;;;;;;2.33;0.38;;;17.80;91.10;;;;;;4866931;29;20025;-82
2023/08/29 04:56:26;;;;;;;3.13;0.50;;;17.70;92.80;;;;;;4841162;29;20033;-82
2023/08/29 04:58:52;;;;;;;1.92;0.43;;;17.80;92.50;;;;;;4844943;29;20053;-82
2023/08/29 05:01:17;;;;;;;0.45;0.45;;;17.80;79.00;;;;;;4852305;29;20385;-83
2023/08/29 05:03:43;;;;;;;1.35;0.40;;;17.80;82.80;;;;;;4870158;29;20061;-82
2023/08/29 05:06:09;;;;;;;1.67;0.35;;;17.80;90.10;;;;;;4845015;29;20026;-82
2023/08/29 05:08:36;;;;;;;0.32;0.30;;;17.70;71.50;;;;;;4860632;29;20078;-83
2023/08/29 05:11:02;;;;;;;0.47;0.35;;;17.70;67.30;;;;;;4844731;29;20089;-83
2023/08/29 05:13:28;;;;;;;0.73;0.30;;;17.60;73.60;;;;;;4844893;29;20025;-83
2023/08/29 05:15:54;;;;;;;0.30;0.20;;;17.60;74.60;;;;;;4844678;29;20030;-84
2023/08/29 05:18:19;;;;;;;0.40;0.20;;;17.50;72.30;;;;;;4863253;29;20096;-84
2023/08/29 05:20:45;;;;;;;0.38;0.28;;;17.50;85.00;;;;;;4861415;29;20041;-85
2023/08/29 05:23:11;;;;;;;0.20;0.20;;;17.50;90.50;;;;;;4860175;29;20022;-84
2023/08/29 05:25:36;;;;;;;0.38;0.30;;;17.40;90.10;;;;;;4844403;29;20030;-85
2023/08/29 05:28:02;;;;;;;1.48;0.28;;;17.50;93.00;;;;;;4847191;29;20022;-85
2023/08/29 05:30:30;;;;;;;0.80;0.38;;;17.50;92.40;;;;;;4863177;29;20512;-85
2023/08/29 05:32:56;;;;;;;0.50;0.40;;;17.50;92.10;;;;;;4852908;29;20500;-85
2023/08/29 05:35:21;;;;;;;1.00;0.40;;;17.50;83.80;;;;;;4855044;29;20026;-80
2023/08/29 05:37:47;;;;;;;0.50;0.50;;;17.50;90.30;;;;;;4853778;29;20068;-79
2023/08/29 05:40:13;;;;;;;0.30;0.30;;;17.60;97.40;;;;;;4851871;29;20026;-80
2023/08/29 05:42:39;;;;;;;0.45;0.30;;;17.60;96.90;;;;;;4843932;29;20331;-80
2023/08/29 05:45:07;;;;;;;0.20;0.20;;;17.70;99.90;;;;;;4845493;29;20397;-80
2023/08/29 05:47:33;;;;;;;0.30;0.30;;;17.80;95.40;;;;;;4846612;29;20037;-79
2023/08/29 05:49:59;;;;;;;0.73;0.20;;;17.80;94.10;;;;;;4844472;29;20029;-80
2023/08/29 05:52:25;;;;;;;0.68;0.22;;;17.70;66.00;;;;;;4837559;29;20033;-80
2023/08/29 05:54:51;;;;;;;0.68;0.30;;;17.70;74.70;;;;;;4862559;29;20376;-81
2023/08/29 05:57:16;;;;;;;1.10;0.20;;;17.70;70.20;;;;;;4847828;29;20033;-81
2023/08/29 05:59:42;;;;;;;0.22;0.20;;;17.80;31.10;;;;;;4843526;29;20032;-81
2023/08/29 06:02:08;;;;;;;0.30;0.30;;;17.90;56.00;;;;;;4845937;29;20034;-81
2023/08/29 06:04:33;;;;;;;0.10;0.10;;;17.90;48.40;;;;;;4855830;29;20485;-81
2023/08/29 06:06:59;;;;;;;0.20;0.20;;;17.80;26.50;;;;;;4848643;29;20358;-81
2023/08/29 06:09:26;;;;;;;0.40;0.40;;;17.90;43.70;;;;;;4846496;29;20121;-81
2023/08/29 06:11:52;;;;;;;0.20;0.20;;;17.90;35.60;;;;;;4865362;29;20049;-81
2023/08/29 06:14:17;;;;;;;4.35;0.35;;;18.00;36.30;;;;;;4866025;29;20493;-82
2023/08/29 06:16:43;;;;;;;0.55;0.47;;;18.00;26.40;;;;;;4862446;29;20037;-83
2023/08/29 06:19:09;;;;;;;0.60;0.60;;;18.40;36.90;;;;;;4864094;29;20018;-81
2023/08/29 06:21:34;;;;;;;0.60;0.60;;;18.90;72.00;;;;;;4847792;29;20084;-82
2023/08/29 06:24:00;;;;;;;0.30;0.25;;;19.10;19.00;;;;;;4852654;29;20443;-82
2023/08/29 06:26:26;;;;;;;0.60;0.35;;;19.30;1.00;;;;;;4847139;29;20379;-81
2023/08/29 06:28:51;;;;;;;0.80;0.15;;;19.00;1.00;;;;;;4863933;29;20033;-82
2023/08/29 06:31:17;;;;;;;0.43;0.43;;;18.90;1.00;;;;;;4840962;29;20089;-82
2023/08/29 06:33:43;;;;;;;0.57;0.40;;;18.80;1.00;;;;;;4862146;29;20393;-82
2023/08/29 06:36:09;;;;;;;0.28;0.28;;;18.70;1.00;;;;;;4849512;29;20041;-82
2023/08/29 06:38:34;;;;;;;0.30;0.30;;;18.60;1.00;;;;;;4841527;29;20040;-82
2023/08/29 06:41:00;;;;;;;0.68;0.38;;;18.60;1.00;;;;;;4841159;29;20030;-82
2023/08/29 06:43:26;;;;;;;0.98;0.60;;;18.60;1.00;;;;;;4848820;29;20117;-82
2023/08/29 06:45:52;;;;;;;0.28;0.28;;;18.60;1.00;;;;;;4846913;29;20026;-82
2023/08/29 06:48:18;;;;;;;3.55;0.40;;;18.60;1.00;;;;;;4864454;29;20060;-83
2023/08/29 06:50:45;;;;;;;5.45;0.40;;;18.60;1.00;;;;;;4850958;29;20051;-83
2023/08/29 06:53:13;;;;;;;0.75;0.40;;;18.70;1.00;;;;;;4840003;29;20038;-83
2023/08/29 06:55:39;;;;;;;0.40;0.40;;;18.80;1.00;;;;;;4842489;29;20528;-83
2023/08/29 06:58:04;;;;;;;0.40;0.40;;;18.80;1.00;;;;;;4844951;29;20074;-82
2023/08/29 07:00:31;;;;;;;0.60;0.40;;;18.90;1.00;;;;;;4866674;29;20025;-84
2023/08/29 07:02:57;;;;;;;1.80;0.30;;;19.00;99.90;;;;;;4842966;29;20513;-84
2023/08/29 07:05:23;;;;;;;0.30;0.30;;;19.00;1.00;;;;;;4864436;29;20120;-83
2023/08/29 07:07:49;;;;;;;0.85;0.40;;;19.10;99.90;;;;;;4848550;29;20120;-83
2023/08/29 07:10:18;;;;;;;0.20;0.15;;;19.10;99.90;;;;;;4841924;29;20089;-85
2023/08/29 07:12:45;;;;;;;0.95;0.40;;;19.10;99.90;;;;;;4850618;29;20153;-84
2023/08/29 07:15:11;;;;;;;0.55;0.43;;;19.10;99.90;;;;;;4841237;29;20029;-83
2023/08/29 07:17:37;;;;;;;0.30;0.30;;;19.10;99.90;;;;;;4867994;29;20493;-84
2023/08/29 07:20:08;;;;;;;0.35;0.35;;;19.20;99.90;;;;;;4842838;29;20290;-83
2023/08/29 07:22:36;;;;;;;0.47;0.30;;;19.20;99.90;;;;;;4845656;29;20044;-85
2023/08/29 07:25:03;;;;;;;0.50;0.50;;;19.20;99.90;;;;;;4847262;29;20054;-84
2023/08/29 07:27:30;;;;;;;0.55;0.20;;;19.20;99.90;;;;;;4848704;29;20033;-83
2023/08/29 07:29:56;;;;;;;0.55;0.50;;;19.30;99.90;;;;;;4846454;29;20034;-82
2023/08/29 07:32:24;;;;;;;0.57;0.40;;;19.30;97.70;;;;;;4846874;29;20090;-82
2023/08/29 07:34:55;;;;;;;0.45;0.40;;;19.40;99.90;;;;;;4864491;29;20069;-82
2023/08/29 07:37:21;;;;;;;0.30;0.30;;;19.50;99.90;;;;;;4847687;29;20030;-81
2023/08/29 07:39:46;;;;;;;0.32;0.30;;;19.60;99.90;;;;;;4854334;29;20026;-81
2023/08/29 07:42:16;;;;;;;1.17;0.50;;;19.60;99.90;;;;;;4848892;29;20072;-81
2023/08/29 07:44:42;;;;;;;1.85;0.30;;;19.80;99.90;;;;;;4849604;29;20021;-81
2023/08/29 07:47:09;;;;;;;1.50;0.40;;;19.80;99.90;;;;;;4845239;29;20064;-82
2023/08/29 07:49:35;;;;;;;0.90;0.63;;;20.00;41.50;;;;;;4865983;29;20044;-81
2023/08/29 07:52:06;;;;;;;1.40;0.65;;;20.10;1.00;;;;;;4842290;29;20033;-80
2023/08/29 07:54:32;;;;;;;0.85;0.68;;;20.10;1.00;;;;;;4842870;29;20068;-80
2023/08/29 07:56:57;;;;;;;0.50;0.50;;;20.20;1.00;;;;;;4840316;29;20462;-80
2023/08/29 07:59:23;;;;;;;0.80;0.50;;;20.20;99.90;;;;;;4839346;29;20025;-80
2023/08/29 08:01:49;;;;;;;0.35;0.30;;;20.30;99.90;;;;;;4844843;29;20040;-80
2023/08/29 08:04:15;;;;;;;0.60;0.40;;;20.30;99.90;;;;;;4862925;29;20034;-80
2023/08/29 08:06:41;;;;;;;1.40;0.38;;;20.30;99.90;;;;;;4866916;29;20034;-79
2023/08/29 08:09:08;;;;;;;1.85;0.30;;;20.30;99.90;;;;;;4848065;29;20052;-80
2023/08/29 08:11:34;;;;;;;0.40;0.40;;;20.40;1.00;;;;;;4839761;29;20053;-80
2023/08/29 08:13:59;;;;;;;0.47;0.40;;;20.40;1.00;;;;;;4866942;29;20550;-80
2023/08/29 08:16:25;;;;;;;1.85;0.50;;;20.40;99.90;;;;;;4845982;29;20032;-80
2023/08/29 08:18:51;;;;;;;0.70;0.40;;;20.40;99.90;;;;;;4865128;29;20041;-80
2023/08/29 08:21:18;;;;;;;2.88;0.50;;;20.40;99.90;;;;;;4855257;29;20112;-80
2023/08/29 08:23:44;;;;;;;0.20;0.20;;;20.40;99.90;;;;;;4848632;29;20035;-80
2023/08/29 08:26:10;;;;;;;0.47;0.20;;;20.30;99.90;;;;;;4868588;29;20026;-80
2023/08/29 08:28:36;;;;;;;1.30;0.32;;;20.30;99.90;;;;;;4859306;29;20037;-79
2023/08/29 08:31:02;;;;;;;0.80;0.57;;;20.20;99.90;;;;;;4843628;29;20022;-80
2023/08/29 08:33:28;;;;;;;0.25;0.25;;;20.20;99.90;;;;;;4866942;29;20497;-80
2023/08/29 08:35:54;;;;;;;0.40;0.22;;;20.20;99.90;;;;;;4848651;29;20037;-79
2023/08/29 08:38:20;;;;;;;0.73;0.20;;;20.20;99.90;;;;;;4863198;29;20026;-79
2023/08/29 08:40:56;;;;;;;0.30;0.30;;;20.20;99.90;;;;;;4854892;29;20033;-79
2023/08/29 08:43:23;;;;;;;0.10;0.10;;;20.20;99.90;;;;;;4861816;29;20041;-79
2023/08/29 08:45:50;;;;;;;0.90;0.50;;;20.10;99.90;;;;;;4869570;29;20553;-78
2023/08/29 08:48:16;;;;;;;0.30;0.30;;;20.10;99.90;;;;;;4862984;29;20038;-78
2023/08/29 08:50:45;;;;;;;0.32;0.32;;;20.10;99.90;;;;;;4868373;29;20080;-79
2023/08/29 08:53:11;;;;;;;1.48;0.60;;;20.20;99.90;;;;;;4862516;29;20374;-79
2023/08/29 08:55:41;;;;;;;0.80;0.70;;;20.20;1.00;;;;;;4870316;29;20115;-79
2023/08/29 08:58:07;;;;;;;0.82;0.75;;;20.40;1.00;;;;;;4850762;29;20041;-79
2023/08/29 09:00:33;;;;;;;2.50;0.80;;;20.50;1.00;;;;;;4868683;29;20055;-79
2023/08/29 09:02:59;;;;;;;1.77;1.17;;;20.50;1.00;;;;;;4844635;29;20094;-79
2023/08/29 09:05:25;;;;;;;1.10;1.00;;;20.60;1.00;;;;;;4863398;29;20501;-77
2023/08/29 09:07:50;;;;;;;2.10;0.90;;;20.70;1.00;;;;;;4840185;29;20549;-78
2023/08/29 09:10:16;;;;;;;2.63;0.80;;;20.70;99.90;;;;;;4838819;29;20071;-78
2023/08/29 09:13:00;;;;;;;1.17;1.10;;;20.80;99.90;;;;;;4847882;29;20056;-78
2023/08/29 09:15:28;;;;;;;1.00;0.90;;;20.80;99.90;;;;;;4843362;29;20072;-78
2023/08/29 09:17:54;;;;;;;2.47;1.10;;;20.90;1.00;;;;;;4864655;29;20402;-77
2023/08/29 09:20:29;;;;;;;3.65;0.80;;;20.90;1.00;;;;;;4861646;29;20447;-78
2023/08/29 09:22:56;;;;;;;0.90;0.75;;;20.90;1.00;;;;;;4858229;29;20033;-77
2023/08/29 09:25:26;;;;;;;1.00;0.70;;;20.80;1.00;;;;;;4863125;29;20281;-79
2023/08/29 09:27:53;;;;;;;1.90;0.80;;;20.90;1.00;;;;;;4841478;29;20026;-79
2023/08/29 09:30:19;;;;;;;1.60;0.40;;;21.00;1.00;;;;;;4845718;29;20033;-79
2023/08/29 09:32:47;;;;;;;5.13;0.63;;;21.10;1.00;;;;;;4839247;29;20377;-79
2023/08/29 09:35:19;;;;;;;0.50;0.50;;;21.00;99.90;;;;;;4856168;29;20500;-81
2023/08/29 09:37:52;;;;;;;1.10;0.40;;;21.00;99.90;;;;;;4840359;29;20399;-81
2023/08/29 09:40:20;;;;;;;0.60;0.35;;;21.10;76.50;;;;;;4845833;29;20033;-80
2023/08/29 09:42:58;;;;;;;0.22;0.20;;;21.20;1.00;;;;;;4856496;29;20272;-82
2023/08/29 09:45:24;;;;;;;0.40;0.35;;;21.20;1.00;;;;;;4855748;29;20089;-81
2023/08/29 09:47:54;;;;;;;1.80;1.00;;;21.30;99.90;;;;;;4844867;29;20274;-79
2023/08/29 09:50:21;;;;;;;3.15;1.08;;;21.30;1.00;;;;;;4837248;29;20037;-79
2023/08/29 09:52:49;;;;;;;2.70;1.48;;;21.20;1.00;;;;;;4859245;29;20033;-77
2023/08/29 09:55:19;;;;;;;2.30;1.05;;;21.10;1.00;;;;;;4862102;29;20045;-78
2023/08/29 09:57:50;;;;;;;1.10;0.82;;;20.90;1.00;;;;;;4842538;29;20029;-78
2023/08/29 10:00:19;;;;;;;2.85;1.10;;;20.90;1.00;;;;;;4839153;29;20084;-79
2023/08/29 10:02:50;;;;;;;2.95;1.15;;;20.90;1.00;;;;;;4842682;29;20342;-78
2023/08/29 10:05:24;;;;;;;1.08;0.88;;;20.90;1.00;;;;;;4840194;29;20120;-78
2023/08/29 10:07:56;;;;;;;1.08;0.80;;;21.00;99.90;;;;;;4847597;29;20116;-78
2023/08/29 10:10:23;;;;;;;3.80;1.00;;;21.10;99.90;;;;;;4847793;29;20034;-78
2023/08/29 10:12:49;;;;;;;3.17;0.70;;;21.20;1.00;;;;;;4863922;29;20060;-78
2023/08/29 10:15:20;;;;;;;1.42;1.00;;;21.30;1.00;;;;;;4852858;29;20037;-78
2023/08/29 10:17:47;;;;;;;1.27;0.77;;;21.30;1.00;;;;;;4854988;29;20108;-79
2023/08/29 10:20:14;;;;;;;1.80;1.30;;;21.40;1.00;;;;;;4848986;29;20025;-79
2023/08/29 10:22:45;;;;;;;2.67;0.90;;;21.50;1.00;;;;;;4858866;29;20100;-78
2023/08/29 10:25:13;;;;;;;1.83;1.00;;;21.40;1.00;;;;;;4839512;29;20033;-79
2023/08/29 10:27:41;;;;;;;1.10;1.00;;;21.40;1.00;;;;;;4843053;29;20040;-79
2023/08/29 10:30:08;;;;;;;2.25;0.75;;;21.40;99.90;;;;;;4838058;29;20036;-79
2023/08/29 10:32:36;;;;;;;0.60;0.60;;;21.50;1.00;;;;;;4840145;29;20029;-79
2023/08/29 10:35:03;;;;;;;0.60;0.55;;;21.60;1.00;;;;;;4864286;29;20041;-79
2023/08/29 10:37:30;;;;;;;0.70;0.70;;;21.60;1.00;;;;;;4842222;29;20029;-79
2023/08/29 10:40:11;;;;;;;2.08;0.80;;;21.60;21.00;;;;;;4848501;29;20078;-79
2023/08/29 10:42:54;;;;;;;0.95;0.63;;;21.70;1.00;;;;;;4848860;29;20021;-79
2023/08/29 10:45:56;;;;;;;1.40;0.98;;;21.80;15.90;;;;;;4839647;29;20044;-79
2023/08/29 10:48:45;;;;;;;0.80;0.55;;;21.80;1.00;;;;;;4832672;29;20566;-78
2023/08/29 10:51:12;;;;;;;1.38;0.77;;;21.80;1.00;;;;;;4847561;29;20045;-79
2023/08/29 10:53:38;;;;;;;2.55;0.70;;;21.90;1.00;;;;;;4833747;29;20048;-79
2023/08/29 10:56:08;;;;;;;0.60;0.47;;;21.90;1.00;;;;;;4837375;29;20405;-79
2023/08/29 10:58:39;;;;;;;0.50;0.50;;;22.00;1.00;;;;;;4850201;29;20057;-79
2023/08/29 11:01:36;;;;;;;0.55;0.55;;;22.00;99.90;;;;;;4836305;29;20120;-79
2023/08/29 11:04:11;;;;;;;0.55;0.32;;;22.00;1.00;;;;;;4834566;29;20040;-79
2023/08/29 11:06:54;;;;;;;0.30;0.30;;;22.10;99.90;;;;;;4835834;29;20402;-77
2023/08/29 11:09:21;;;;;;;0.30;0.30;;;22.20;99.90;;;;;;4834113;29;20025;-79
2023/08/29 11:12:10;;;;;;;0.30;0.30;;;22.20;99.90;;;;;;4854576;29;20064;-80
2023/08/29 11:14:56;;;;;;;0.22;0.20;;;22.20;99.90;;;;;;4824498;29;20033;-78
2023/08/29 11:17:23;;;;;;;1.42;0.35;;;22.30;99.90;;;;;;4838919;29;20082;-78
2023/08/29 11:19:57;;;;;;;0.30;0.30;;;22.20;99.90;;;;;;4839911;29;20091;-77
2023/08/29 11:22:31;;;;;;;0.47;0.30;;;22.20;23.30;;;;;;4847883;29;20117;-78
2023/08/29 11:24:58;;;;;;;1.08;0.47;;;22.20;21.10;;;;;;4863634;29;20489;-78
2023/08/29 11:27:24;;;;;;;0.65;0.40;;;22.20;99.90;;;;;;4837258;29;20033;-77
2023/08/29 11:29:52;;;;;;;0.52;0.40;;;22.10;99.90;;;;;;4846304;29;20628;-78
2023/08/29 11:32:19;;;;;;;0.82;0.40;;;22.20;99.90;;;;;;4860231;29;20086;-78
2023/08/29 11:34:54;;;;;;;0.20;0.20;;;22.20;99.90;;;;;;4861665;29;20489;-77
2023/08/29 11:37:25;;;;;;;0.30;0.30;;;22.20;99.90;;;;;;4840702;29;20044;-78
2023/08/29 11:39:51;;;;;;;0.30;0.30;;;22.20;99.90;;;;;;4864932;29;20697;-79
2023/08/29 11:42:21;;;;;;;2.17;0.30;;;22.20;99.90;;;;;;4859430;29;20041;-78
2023/08/29 11:44:52;;;;;;;1.48;0.47;;;22.20;99.90;;;;;;4862949;29;20036;-77
2023/08/29 11:47:18;;;;;;;0.50;0.35;;;22.20;99.90;;;;;;4847580;29;20038;-78
2023/08/29 11:49:49;;;;;;;0.40;0.30;;;22.20;99.90;;;;;;4852982;29;20092;-76
2023/08/29 11:52:19;;;;;;;1.70;0.30;;;22.20;99.90;;;;;;4838885;29;20068;-77
2023/08/29 11:54:50;;;;;;;0.13;0.13;;;22.10;99.90;;;;;;4862188;29;20033;-78
2023/08/29 11:57:16;;;;;;;0.20;0.20;;;22.10;99.90;;;;;;4864520;29;20131;-77
2023/08/29 11:59:44;;;;;;;0.20;0.20;;;22.10;99.90;;;;;;4864577;29;20077;-78
2023/08/29 12:02:17;;;;;;;1.30;0.20;;;22.10;99.90;;;;;;4862159;29;20057;-77
2023/08/29 12:04:44;;;;;;;0.10;0.10;;;22.20;99.90;;;;;;4865099;29;20033;-78
2023/08/29 12:07:15;;;;;;;2.00;0.35;;;22.10;99.90;;;;;;4836840;29;20125;-77
2023/08/29 12:09:42;;;;;;;0.15;0.15;;;22.20;99.90;;;;;;4864718;29;20029;-77
2023/08/29 12:12:26;;;;;;;0.40;0.20;;;22.10;1.00;;;;;;4865178;29;20156;-77
2023/08/29 12:14:52;;;;;;;0.10;0.10;;;22.10;1.00;;;;;;4859469;29;20482;-77
2023/08/29 12:17:19;;;;;;;0.10;0.10;;;22.00;1.00;;;;;;4862226;29;20410;-76
2023/08/29 12:19:48;;;;;;;0.10;0.10;;;21.90;1.00;;;;;;4860333;29;20029;-76
2023/08/29 12:22:19;;;;;;;0.00;0.00;;;21.80;21.70;;;;;;4857317;29;20026;-77
2023/08/29 12:24:54;;;;;;;0.10;0.10;;;21.80;1.00;;;;;;4866077;29;20049;-77
2023/08/29 12:27:20;;;;;;;1.10;0.13;;;21.80;99.90;;;;;;4859305;29;20707;-77
2023/08/29 12:29:46;;;;;;;0.47;0.20;;;21.90;99.90;;;;;;4860307;29;20132;-77
2023/08/29 12:32:13;;;;;;;0.60;0.10;;;21.90;99.90;;;;;;4853855;29;20389;-77
2023/08/29 12:34:41;;;;;;;0.10;0.10;;;21.90;99.90;;;;;;4855666;29;20032;-77
2023/08/29 12:37:07;;;;;;;0.10;0.10;;;21.90;99.90;;;;;;4853259;29;20040;-77
2023/08/29 12:39:32;;;;;;;0.35;0.10;;;21.90;1.00;;;;;;4838854;29;20390;-77
2023/08/29 12:41:58;;;;;;;0.90;0.20;;;21.90;1.00;;;;;;4862952;29;20460;-77
2023/08/29 12:44:24;;;;;;;0.13;0.13;;;21.80;99.90;;;;;;4860967;29;20601;-78
2023/08/29 12:46:49;;;;;;;0.10;0.10;;;21.80;1.00;;;;;;4865094;29;20626;-76
2023/08/29 12:49:15;;;;;;;0.20;0.10;;;21.80;99.90;;;;;;4857117;29;20037;-76
2023/08/29 12:51:44;;;;;;;0.30;0.20;;;21.80;99.90;;;;;;4860916;29;20036;-77
2023/08/29 12:54:10;;;;;;;0.00;0.00;;;21.80;99.90;;;;;;4861742;29;20525;-76